createdAt,value
2019-03-28T04:53:19.047Z,46.73
2019-03-28T04:55:49.745Z,55.60
2019-03-28T04:58:21.837Z,31.85
2019-03-28T05:00:53.337Z,28.02
2019-03-28T05:03:25.677Z,25.80
2019-03-28T05:05:56.273Z,22.73
2019-03-28T05:08:26.805Z,22.77
2019-03-28T05:10:57.333Z,22.75
2019-03-28T05:13:27.867Z,17.73
2019-03-28T05:15:58.494Z,18.40
2019-03-28T05:18:29.064Z,24.67
2019-03-28T05:20:59.668Z,54.73
2019-03-28T05:23:30.298Z,26.15
2019-03-28T05:26:00.830Z,28.35
2019-03-28T05:28:31.457Z,23.75
2019-03-28T05:31:01.989Z,19.07
2019-03-28T05:33:32.569Z,19.15
2019-03-28T05:36:04.504Z,15.45
2019-03-28T05:38:35.254Z,22.42
2019-03-28T05:41:05.955Z,18.85
2019-03-28T05:43:36.598Z,15.93
2019-03-28T05:46:07.227Z,23.25
2019-03-28T05:48:37.756Z,23.42
2019-03-28T05:51:08.500Z,30.65
2019-03-28T05:53:38.989Z,34.10
2019-03-28T05:56:09.498Z,47.78
2019-03-28T05:58:40.093Z,24.32
2019-03-28T06:01:10.697Z,23.42
2019-03-28T06:03:41.215Z,26.05
2019-03-28T06:06:11.735Z,15.10
2019-03-28T06:08:42.229Z,34.60
2019-03-28T06:11:12.744Z,16.95
2019-03-28T06:13:43.283Z,22.90
2019-03-28T06:16:13.905Z,22.80
2019-03-28T06:18:44.436Z,24.37
2019-03-28T06:21:14.967Z,25.32
2019-03-28T06:23:45.906Z,21.12
2019-03-28T06:26:16.442Z,25.72
2019-03-28T06:28:47.005Z,25.92
2019-03-28T06:31:17.501Z,20.05
2019-03-28T06:33:48.140Z,31.75
2019-03-28T06:36:18.767Z,33.15
2019-03-28T06:38:50.225Z,20.75
2019-03-28T06:41:20.934Z,35.43
2019-03-28T06:43:51.633Z,33.15
2019-03-28T06:46:22.122Z,17.32
2019-03-28T06:48:52.651Z,28.65
2019-03-28T06:51:23.183Z,36.93
2019-03-28T06:53:56.985Z,27.75
2019-03-28T06:56:26.049Z,16.20
2019-03-28T06:58:56.591Z,34.73
2019-03-28T07:01:27.171Z,28.73
2019-03-28T07:03:57.726Z,40.55
2019-03-28T07:06:28.335Z,18.62
2019-03-28T07:08:58.829Z,28.73
2019-03-28T07:11:29.394Z,97.95
2019-03-28T07:13:59.903Z,47.62
2019-03-28T07:16:30.541Z,30.80
2019-03-28T07:19:01.075Z,28.52
2019-03-28T07:21:31.668Z,22.30
2019-03-28T07:24:02.163Z,16.67
2019-03-28T07:26:32.861Z,21.25
2019-03-28T07:29:03.446Z,37.93
2019-03-28T07:31:35.673Z,26.55
2019-03-28T07:34:06.410Z,28.07
2019-03-28T07:36:37.157Z,57.67
2019-03-28T07:39:07.974Z,31.20
2019-03-28T07:41:38.570Z,29.18
2019-03-28T07:44:09.149Z,40.78
2019-03-28T07:46:39.652Z,14.33
2019-03-28T07:49:10.185Z,16.32
2019-03-28T07:51:40.714Z,33.42
2019-03-28T07:54:11.395Z,18.45
2019-03-28T07:56:41.974Z,41.88
2019-03-28T07:59:12.504Z,27.93
2019-03-28T08:01:43.093Z,19.35
2019-03-28T08:04:13.754Z,18.12
2019-03-28T08:06:50.119Z,30.45
2019-03-28T08:09:17.692Z,111.12
2019-03-28T08:11:48.633Z,20.17
2019-03-28T08:14:19.129Z,36.17
2019-03-28T08:16:49.829Z,24.47
2019-03-28T08:19:20.325Z,18.98
2019-03-28T08:21:50.868Z,26.20
2019-03-28T08:24:21.401Z,27.67
2019-03-28T08:26:52.072Z,23.05
2019-03-28T08:29:22.677Z,27.35
2019-03-28T08:31:54.635Z,15.60
2019-03-28T08:34:25.268Z,16.32
2019-03-28T08:36:55.856Z,16.30
2019-03-28T08:39:26.428Z,21.87
2019-03-28T08:41:57.025Z,21.82
2019-03-28T08:44:27.601Z,28.57
2019-03-28T08:46:58.327Z,25.40
2019-03-28T08:49:30.294Z,24.37
2019-03-28T08:52:01.965Z,14.30
2019-03-28T08:54:32.817Z,14.25
2019-03-28T08:57:03.632Z,20.25
2019-03-28T08:59:34.264Z,34.55
2019-03-28T09:02:05.121Z,72.35
2019-03-28T09:04:35.774Z,29.63
2019-03-28T09:07:06.373Z,18.27
2019-03-28T09:09:36.904Z,30.10
2019-03-28T09:12:08.491Z,23.92
2019-03-28T09:14:39.199Z,15.58
2019-03-28T09:17:09.893Z,25.65
2019-03-28T09:19:40.665Z,16.07
2019-03-28T09:22:11.195Z,13.25
2019-03-28T09:24:41.826Z,14.30
2019-03-28T09:27:12.466Z,11.45
2019-03-28T09:29:43.027Z,9.00
2019-03-28T09:32:13.513Z,11.57
2019-03-28T09:34:44.155Z,65.17
2019-03-28T09:37:14.895Z,15.58
2019-03-28T09:39:46.666Z,19.10
2019-03-28T09:42:17.328Z,53.30
2019-03-28T09:44:48.029Z,24.12
2019-03-28T09:47:18.653Z,27.22
2019-03-28T09:49:50.637Z,36.20
2019-03-28T09:52:21.219Z,14.20
2019-03-28T09:54:51.890Z,50.35
2019-03-28T09:57:22.381Z,79.03
2019-03-28T09:59:52.052Z,16.80
2019-03-28T10:02:22.383Z,15.32
2019-03-28T10:04:52.876Z,19.82
2019-03-28T10:07:23.418Z,16.87
2019-03-28T10:09:54.139Z,14.53
2019-03-28T10:12:24.682Z,36.42
2019-03-28T10:14:55.314Z,11.15
2019-03-28T10:17:26.155Z,40.45
2019-03-28T10:19:56.782Z,12.30
2019-03-28T10:22:28.643Z,42.85
2019-03-28T10:24:59.240Z,22.07
2019-03-28T10:27:29.917Z,56.77
2019-03-28T10:30:00.544Z,414.32
2019-03-28T10:32:32.391Z,332.18
2019-03-28T10:35:03.046Z,29.40
2019-03-28T10:37:33.700Z,35.08
2019-03-28T10:40:07.291Z,68.42
2019-03-28T10:42:38.111Z,13.45
2019-03-28T10:45:08.851Z,22.93
2019-03-28T10:47:39.486Z,11.05
2019-03-28T10:50:10.124Z,8.70
2019-03-28T10:52:40.753Z,17.67
2019-03-28T10:55:11.247Z,14.65
2019-03-28T10:57:41.812Z,7.00
2019-03-28T11:00:23.505Z,10.90
2019-03-28T11:02:44.893Z,9.35
2019-03-28T11:05:16.994Z,9.75
2019-03-28T11:07:47.480Z,16.42
2019-03-28T11:10:18.056Z,5.22
2019-03-28T11:12:48.589Z,7.75
2019-03-28T11:15:19.120Z,9.98
2019-03-28T11:17:49.643Z,8.98
2019-03-28T11:20:20.280Z,8.53
2019-03-28T11:22:52.211Z,9.23
2019-03-28T11:25:25.852Z,12.53
2019-03-28T11:27:56.483Z,17.23
2019-03-28T11:30:27.068Z,8.50
2019-03-28T11:32:57.548Z,10.00
2019-03-28T11:35:28.072Z,8.03
2019-03-28T11:37:58.603Z,8.18
2019-03-28T11:40:29.132Z,8.18
2019-03-28T11:42:59.878Z,11.53
2019-03-28T11:45:30.600Z,6.65
2019-03-28T11:48:01.342Z,9.35
2019-03-28T11:50:31.972Z,9.15
2019-03-28T11:53:02.615Z,9.88
2019-03-28T11:55:33.243Z,7.58
2019-03-28T11:58:03.852Z,16.97
2019-03-28T12:00:34.403Z,8.93
2019-03-28T12:03:04.873Z,8.70
2019-03-28T12:05:35.367Z,7.87
2019-03-28T12:08:05.894Z,9.80
2019-03-28T12:10:36.524Z,10.32
2019-03-28T12:13:07.165Z,5.25
2019-03-28T12:15:37.696Z,6.05
2019-03-28T12:18:08.187Z,10.43
2019-03-28T12:20:38.857Z,7.58
2019-03-28T12:23:09.402Z,8.25
2019-03-28T12:25:39.873Z,6.47
2019-03-28T12:28:11.748Z,6.97
2019-03-28T12:30:42.299Z,6.30
2019-03-28T12:33:12.964Z,5.35
2019-03-28T12:35:43.499Z,4.10
2019-03-28T12:38:14.018Z,11.38
2019-03-28T12:40:44.545Z,6.35
2019-03-28T12:43:15.039Z,8.63
2019-03-28T12:45:45.550Z,5.97
2019-03-28T12:48:18.904Z,6.60
2019-03-28T12:50:58.772Z,10.60
2019-03-28T12:53:21.812Z,12.80
2019-03-28T12:55:52.352Z,6.03
2019-03-28T12:58:23.902Z,6.20
2019-03-28T13:00:54.424Z,8.73
2019-03-28T13:03:24.951Z,6.85
2019-03-28T13:05:55.579Z,7.40
2019-03-28T13:08:26.166Z,6.22
2019-03-28T13:10:57.869Z,6.25
2019-03-28T13:13:29.426Z,16.10
2019-03-28T13:16:00.064Z,10.75
2019-03-28T13:18:30.692Z,13.88
2019-03-28T13:21:12.684Z,7.85
2019-03-28T13:23:33.709Z,19.95
2019-03-28T13:26:04.238Z,13.45
2019-03-28T13:28:34.868Z,7.40
2019-03-28T13:31:05.399Z,13.13
2019-03-28T13:33:36.027Z,19.85
2019-03-28T13:36:06.795Z,8.13
2019-03-28T13:38:38.402Z,11.00
2019-03-28T13:41:08.961Z,14.87
2019-03-28T13:43:39.490Z,6.47
2019-03-28T13:46:10.120Z,9.20
2019-03-28T13:48:40.650Z,8.08
2019-03-28T13:51:11.180Z,9.23
2019-03-28T13:53:41.689Z,6.58
2019-03-28T13:56:12.247Z,7.37
2019-03-28T13:58:42.874Z,12.15
2019-03-28T14:01:13.363Z,7.33
2019-03-28T14:03:44.001Z,14.15
2019-03-28T14:06:14.577Z,8.13
2019-03-28T14:08:45.206Z,8.75
2019-03-28T14:11:15.836Z,9.70
2019-03-28T14:13:47.540Z,13.55
2019-03-28T14:16:18.240Z,6.72
2019-03-28T14:18:48.715Z,8.58
2019-03-28T14:21:19.398Z,9.88
2019-03-28T14:23:49.929Z,10.10
2019-03-28T14:26:20.459Z,11.25
2019-03-28T14:28:51.296Z,10.40
2019-03-28T14:31:21.926Z,11.78
2019-03-28T14:33:52.460Z,12.63
2019-03-28T14:36:25.146Z,12.20
2019-03-28T14:38:55.574Z,14.83
2019-03-28T14:41:26.104Z,11.73
2019-03-28T14:43:56.733Z,7.15
2019-03-28T14:46:27.262Z,9.45
2019-03-28T14:48:57.985Z,20.90
2019-03-28T14:51:28.632Z,12.98
2019-03-28T14:53:59.274Z,13.03
2019-03-28T14:56:29.868Z,16.17
2019-03-28T14:59:01.565Z,14.58
2019-03-28T15:01:32.075Z,8.23
2019-03-28T15:04:02.625Z,10.03
2019-03-28T15:06:33.487Z,10.55
2019-03-28T15:09:07.825Z,14.40
2019-03-28T15:11:38.318Z,30.48
2019-03-28T15:14:08.939Z,25.88
2019-03-28T15:16:39.451Z,22.93
2019-03-28T15:19:11.079Z,37.15
2019-03-28T15:21:41.664Z,10.30
2019-03-28T15:24:12.293Z,17.62
2019-03-28T15:26:42.999Z,16.73
2019-03-28T15:29:13.561Z,14.85
2019-03-28T15:31:44.309Z,21.97
2019-03-28T15:34:14.801Z,24.27
2019-03-28T15:36:45.365Z,34.13
2019-03-28T15:39:15.930Z,20.25
2019-03-28T15:41:46.737Z,17.00
2019-03-28T15:44:17.222Z,21.15
2019-03-28T15:46:47.816Z,18.23
2019-03-28T15:49:18.333Z,24.45
2019-03-28T15:51:49.059Z,20.55
2019-03-28T15:54:19.628Z,11.35
2019-03-28T15:56:50.225Z,11.78
2019-03-28T15:59:20.702Z,8.18
2019-03-28T16:01:51.301Z,10.40
2019-03-28T16:04:24.661Z,16.15
2019-03-28T16:06:54.194Z,15.58
2019-03-28T16:09:26.051Z,12.95
2019-03-28T16:12:02.870Z,11.80
2019-03-28T16:14:30.493Z,9.70
2019-03-28T16:17:01.127Z,36.75
2019-03-28T16:19:31.877Z,16.50
2019-03-28T16:22:04.160Z,19.42
2019-03-28T16:24:34.770Z,28.60
2019-03-28T16:27:05.509Z,18.50
2019-03-28T16:29:36.139Z,26.15
2019-03-28T16:32:06.670Z,18.50
2019-03-28T16:34:37.297Z,28.65
2019-03-28T16:37:07.783Z,33.02
2019-03-28T16:39:38.496Z,19.77
2019-03-28T16:42:09.041Z,37.58
2019-03-28T16:44:40.038Z,40.05
2019-03-28T16:47:10.604Z,27.55
2019-03-28T16:49:41.220Z,12.90
2019-03-28T16:52:11.710Z,20.90
2019-03-28T16:54:42.466Z,19.48
2019-03-28T16:57:13.111Z,28.95
2019-03-28T16:59:43.674Z,36.28
2019-03-28T17:02:14.243Z,38.30
2019-03-28T17:04:45.931Z,35.50
2019-03-28T17:07:16.480Z,27.58
2019-03-28T17:09:46.991Z,57.08
2019-03-28T17:12:17.510Z,43.25
2019-03-28T17:14:48.154Z,41.50
2019-03-28T17:17:18.683Z,53.87
2019-03-28T17:19:49.334Z,140.90
2019-03-28T17:22:19.955Z,180.15
2019-03-28T17:24:50.495Z,163.65
2019-03-28T17:27:21.026Z,139.20
2019-03-28T17:29:51.551Z,101.33
2019-03-28T17:32:22.175Z,88.25
2019-03-28T17:34:53.764Z,118.82
2019-03-28T17:37:24.279Z,146.93
2019-03-28T17:39:54.862Z,109.85
2019-03-28T17:42:25.630Z,135.35
2019-03-28T17:44:56.143Z,130.18
2019-03-28T17:47:26.694Z,116.62
2019-03-28T17:49:57.332Z,125.02
2019-03-28T17:52:28.032Z,66.42
2019-03-28T17:54:58.710Z,66.62
2019-03-28T17:57:29.543Z,132.95
2019-03-28T18:00:00.453Z,278.60
2019-03-28T18:02:32.275Z,357.57
2019-03-28T18:05:09.091Z,645.57
2019-03-28T18:07:35.754Z,370.77
2019-03-28T18:10:06.695Z,127.53
2019-03-28T18:12:37.334Z,207.60
2019-03-28T18:15:08.022Z,154.23
2019-03-28T18:17:38.594Z,164.07
2019-03-28T18:20:09.331Z,168.87
2019-03-28T18:22:40.073Z,138.80
2019-03-28T18:25:10.803Z,121.47
2019-03-28T18:27:41.298Z,140.32
2019-03-28T18:30:12.168Z,144.05
2019-03-28T18:32:42.702Z,115.15
2019-03-28T18:35:13.342Z,130.40
2019-03-28T18:37:44.772Z,125.35
2019-03-28T18:40:15.423Z,148.05
2019-03-28T18:42:45.955Z,97.90
2019-03-28T18:45:16.488Z,102.25
2019-03-28T18:47:47.090Z,274.48
2019-03-28T18:50:17.648Z,402.88
2019-03-28T18:52:48.141Z,318.52
